Airfield :
LOGIN :

Register | Disclaimer

   EN    FR    IT 

 










Legend :    VFR   Marginal VFR   IFR   Intensive IFR   Very Intensive IFR
Visi :
Ceiling :
>= 8 km
>= 3000ft
5 to 8 km
1000 to 3000 ft
1500m to 5 km
500 to 1000 ft
800 to 1500m
200 to 500 ft
< 800m
< 200 ft
Symbols :   Thunderstorms  Fog  Heavy snow  Heavy precipitations  Wind > 20 kt
SIGMETs :     Misc.  Thunderstorms  Icing  Turbulence  Mountain Waves  Volcanic Ashes







- Airport Elevation : 157 ft
- IATA code : LIL
- Download approach charts


LFQQ - Lille Lesquin

CURRENT METAR :
  • 261130Z AUTO 24014KT 9999 OVC021 18/12 Q1015 TEMPO 24015G25KT

EXPIRED METARs :
  • 261100Z AUTO 24013KT 9999 OVC020 18/13 Q1016 TEMPO 24015G25KT
  • 261030Z AUTO 24015KT 210V270 9000 BKN020 18/12 Q1016 TEMPO 24015G25KT
  • 261000Z AUTO 25014KT 220V280 9000 BKN020 18/13 Q1016 NOSIG
  • 260930Z AUTO 22013KT 9000 BKN018 BKN078 18/12 Q1016 NOSIG
  • 260900Z AUTO 23014KT 9000 SCT019 BKN078 18/13 Q1016 NOSIG

TAF TAF LFQQ
Valid from the 26 at 12:00 until the 27 at 18:00 UTC


261100Z 2612/2718 24012KT 9999 BKN025
TEMPO 2612/2617 24015G25KT
TEMPO 2617/2622 4000 RA BKN012
PROB30
TEMPO 2617/2622 BKN008
TEMPO 2622/2704 4000 DZ OVC004
ATIS : +33 3 20 16 19 54
No reported NOTAMs for that airfield.



MET'MAP, your aeronautical weather chart ! - Copyright ORBIFLY December 2007 - Disclaimer

ORBIFLY MET'MAP TEAM :

Programming & Development : Alexandra Zaïnal
Concept & Development : Baudouin d'Aumeries
Co-Development & Prog : Marc-Olivier Méhu
Technical & hardware support : Manuel Goepfert

Contact : metmap@orbifly.com




SOURCES & CREDITS :

   NOAA